Time;durP1;ratioP1;P1;durP2;ratioP2;P2;SDS_P1;SDS_P2;PMS_P1;PMS_P2;Temp;Humidity;BMP_temperature;BMP_pressure;BME280_temperature;BME280_humidity;BME280_pressure;Samples;Min_cycle;Max_cycle;Signal;HPM_P1;HPM_P2
2022/03/11 00:00:26;;;;;;;5.10;3.45;;;7.90;63.90;;;;;;5052038;28;20209;-69
2022/03/11 00:02:52;;;;;;;4.68;3.40;;;7.90;63.60;;;;;;5049057;28;20203;-70
2022/03/11 00:05:19;;;;;;;3.63;3.00;;;8.00;63.50;;;;;;5048547;28;20217;-69
2022/03/11 00:07:46;;;;;;;4.00;3.13;;;8.00;63.40;;;;;;5049146;28;20810;-69
2022/03/11 00:10:13;;;;;;;4.55;2.97;;;8.00;63.20;;;;;;5048457;28;20193;-69
2022/03/11 00:12:39;;;;;;;3.25;2.90;;;8.00;63.30;;;;;;5047050;28;20212;-69
2022/03/11 00:15:07;;;;;;;5.85;3.55;;;8.00;63.00;;;;;;5048616;28;20243;-69
2022/03/11 00:17:35;;;;;;;2.90;2.60;;;8.10;62.80;;;;;;5049412;28;20206;-69
2022/03/11 00:20:03;;;;;;;3.70;3.30;;;8.10;62.60;;;;;;5049705;28;20759;-69
2022/03/11 00:22:29;;;;;;;4.32;2.80;;;8.10;62.60;;;;;;5047769;28;20217;-70
2022/03/11 00:24:56;;;;;;;4.65;3.55;;;8.10;62.60;;;;;;5048303;28;20301;-69
2022/03/11 00:27:23;;;;;;;3.13;2.67;;;8.10;62.30;;;;;;5049303;28;20242;-70
2022/03/11 00:29:50;;;;;;;3.97;2.92;;;8.10;62.50;;;;;;5049630;28;20616;-70
2022/03/11 00:32:17;;;;;;;5.80;2.95;;;8.00;62.60;;;;;;5050565;28;20209;-69
2022/03/11 00:34:45;;;;;;;9.75;3.85;;;8.00;62.80;;;;;;5048560;28;20221;-69
2022/03/11 00:37:11;;;;;;;3.08;2.47;;;7.90;62.80;;;;;;5050467;28;20201;-70
2022/03/11 00:39:38;;;;;;;3.15;2.85;;;7.90;62.60;;;;;;5050225;28;20231;-71
2022/03/11 00:42:05;;;;;;;3.85;3.55;;;8.00;62.70;;;;;;5053727;28;20327;-69
2022/03/11 00:44:31;;;;;;;3.25;2.58;;;8.00;62.40;;;;;;5065344;28;20263;-69
2022/03/11 00:46:58;;;;;;;3.55;2.10;;;8.10;62.30;;;;;;5065347;28;20212;-70
2022/03/11 00:49:25;;;;;;;4.35;2.45;;;8.10;62.40;;;;;;5053435;28;20295;-70
2022/03/11 00:51:53;;;;;;;3.58;3.00;;;8.00;62.40;;;;;;5049951;28;20652;-69
2022/03/11 00:54:19;;;;;;;3.88;2.88;;;7.90;62.60;;;;;;5048788;28;20331;-70
2022/03/11 00:56:46;;;;;;;3.13;2.65;;;7.90;62.70;;;;;;5048205;28;20278;-69
2022/03/11 00:59:13;;;;;;;3.30;3.00;;;7.90;62.50;;;;;;5048063;28;20233;-69
2022/03/11 01:01:39;;;;;;;2.95;2.42;;;7.90;62.70;;;;;;5050344;28;20209;-70
2022/03/11 01:04:06;;;;;;;3.47;3.17;;;7.90;62.50;;;;;;5049864;28;20232;-70
2022/03/11 01:06:33;;;;;;;3.58;2.80;;;8.00;62.70;;;;;;5051650;28;20200;-69
2022/03/11 01:09:01;;;;;;;5.55;2.90;;;7.90;62.70;;;;;;5051111;28;20202;-70
2022/03/11 01:11:27;;;;;;;11.82;4.20;;;7.90;62.70;;;;;;5049581;28;20227;-70
2022/03/11 01:13:54;;;;;;;4.18;3.03;;;7.90;62.70;;;;;;5050660;28;20235;-69
2022/03/11 01:16:21;;;;;;;4.32;3.50;;;7.90;62.80;;;;;;5051765;28;20231;-70
2022/03/11 01:18:48;;;;;;;3.88;2.65;;;7.90;63.10;;;;;;5052483;28;20303;-69
2022/03/11 01:21:15;;;;;;;4.53;2.95;;;7.80;63.10;;;;;;5053272;28;20235;-70
2022/03/11 01:23:41;;;;;;;4.15;3.45;;;7.80;63.30;;;;;;5052337;28;20236;-70
2022/03/11 01:26:11;;;;;;;3.67;3.35;;;7.80;63.30;;;;;;5052869;28;20227;-69
2022/03/11 01:28:39;;;;;;;3.85;3.15;;;7.80;63.40;;;;;;5049116;28;20224;-70
2022/03/11 01:31:06;;;;;;;4.47;3.20;;;7.80;63.60;;;;;;5049905;28;20743;-70
2022/03/11 01:33:32;;;;;;;5.90;3.60;;;7.80;63.80;;;;;;5047510;28;20643;-69
2022/03/11 01:35:59;;;;;;;3.22;2.92;;;7.80;64.00;;;;;;5048925;28;20268;-69
2022/03/11 01:38:26;;;;;;;4.13;3.17;;;7.70;64.10;;;;;;5048500;28;20250;-69
2022/03/11 01:40:52;;;;;;;5.50;3.75;;;7.70;64.30;;;;;;5048213;28;20204;-70
2022/03/11 01:43:20;;;;;;;3.80;2.70;;;7.60;64.50;;;;;;5047974;28;20208;-71
2022/03/11 01:45:47;;;;;;;4.30;2.58;;;7.60;64.70;;;;;;5048641;28;20253;-71
2022/03/11 01:48:13;;;;;;;5.68;3.85;;;7.60;64.90;;;;;;5048833;28;20277;-69
2022/03/11 01:50:42;;;;;;;2.90;2.40;;;7.60;65.00;;;;;;5048681;28;20197;-70
2022/03/11 01:53:10;;;;;;;4.00;3.60;;;7.50;65.30;;;;;;5051390;28;20200;-71
2022/03/11 01:55:37;;;;;;;3.28;2.25;;;7.50;65.50;;;;;;5052540;28;20951;-71
2022/03/11 01:58:04;;;;;;;4.35;3.42;;;7.50;65.60;;;;;;5060329;28;20208;-70
2022/03/11 02:00:35;;;;;;;4.35;3.72;;;7.50;66.00;;;;;;5066007;28;20280;-71
2022/03/11 02:03:01;;;;;;;2.92;2.55;;;7.40;66.20;;;;;;5082067;28;20197;-69
2022/03/11 02:05:28;;;;;;;3.45;3.15;;;7.40;66.30;;;;;;5057022;28;20224;-69
2022/03/11 02:07:58;;;;;;;3.60;3.30;;;7.50;66.40;;;;;;5048579;28;20279;-69
2022/03/11 02:10:25;;;;;;;4.18;3.05;;;7.40;66.50;;;;;;5049065;28;20604;-69
2022/03/11 02:12:52;;;;;;;3.38;3.08;;;7.30;66.80;;;;;;5048302;28;20613;-69
2022/03/11 02:15:19;;;;;;;4.15;3.63;;;7.30;67.20;;;;;;5047995;28;20219;-69
2022/03/11 02:17:46;;;;;;;4.47;3.67;;;7.20;67.30;;;;;;5048225;28;20805;-70
2022/03/11 02:20:13;;;;;;;6.35;4.07;;;7.20;67.60;;;;;;5046886;28;20226;-69
2022/03/11 02:22:41;;;;;;;3.70;3.30;;;7.20;67.80;;;;;;5046198;28;20213;-69
2022/03/11 02:25:10;;;;;;;4.07;2.70;;;7.20;68.00;;;;;;5047424;28;20686;-69
2022/03/11 02:27:37;;;;;;;3.92;2.83;;;7.20;68.20;;;;;;5042645;28;20582;-69
2022/03/11 02:30:04;;;;;;;3.65;3.05;;;7.20;68.30;;;;;;5041055;28;20217;-70
2022/03/11 02:32:31;;;;;;;4.90;3.45;;;7.10;68.50;;;;;;5038954;28;20209;-72
2022/03/11 02:34:58;;;;;;;6.55;4.45;;;7.10;68.80;;;;;;5051686;28;20246;-70
2022/03/11 02:37:25;;;;;;;5.15;3.10;;;7.10;68.80;;;;;;5058500;28;20220;-70
2022/03/11 02:39:52;;;;;;;5.38;3.20;;;7.10;68.90;;;;;;5058758;28;20300;-71
2022/03/11 02:42:20;;;;;;;4.45;3.63;;;7.00;69.00;;;;;;5059484;28;20202;-68
2022/03/11 02:44:46;;;;;;;4.70;2.65;;;7.00;69.30;;;;;;5058286;28;20292;-69
2022/03/11 02:47:13;;;;;;;3.30;2.75;;;7.00;69.50;;;;;;5060070;28;20312;-70
2022/03/11 02:49:40;;;;;;;5.38;3.80;;;7.00;69.60;;;;;;5062953;28;20206;-70
2022/03/11 02:52:07;;;;;;;4.72;3.25;;;6.90;70.00;;;;;;5061945;28;20285;-70
2022/03/11 02:54:34;;;;;;;5.65;4.25;;;6.90;70.20;;;;;;5062584;28;20285;-70
2022/03/11 02:57:00;;;;;;;6.78;4.30;;;6.80;70.40;;;;;;5062274;28;20246;-70
2022/03/11 02:59:28;;;;;;;4.18;3.40;;;6.80;70.60;;;;;;5061984;28;20248;-70
2022/03/11 03:01:55;;;;;;;3.72;3.10;;;6.80;70.80;;;;;;5041099;28;20206;-68
2022/03/11 03:04:22;;;;;;;4.15;3.38;;;6.80;70.90;;;;;;5045367;28;20222;-71
2022/03/11 03:06:48;;;;;;;4.88;4.10;;;6.80;70.90;;;;;;5055904;28;20725;-70
2022/03/11 03:09:15;;;;;;;4.25;3.30;;;6.70;71.00;;;;;;5057607;28;20209;-71
2022/03/11 03:11:42;;;;;;;5.28;3.67;;;6.80;71.10;;;;;;5059024;28;20206;-73
2022/03/11 03:14:08;;;;;;;7.03;5.15;;;6.70;71.20;;;;;;5057239;28;20247;-70
2022/03/11 03:16:36;;;;;;;2.53;2.33;;;6.70;71.20;;;;;;5058647;28;20244;-70
2022/03/11 03:19:03;;;;;;;6.32;3.42;;;6.60;71.30;;;;;;5049961;28;20209;-70
2022/03/11 03:21:30;;;;;;;5.25;4.07;;;6.60;71.60;;;;;;5047227;28;20275;-71
2022/03/11 03:23:56;;;;;;;7.50;3.22;;;6.60;71.60;;;;;;5046443;28;20221;-70
2022/03/11 03:26:24;;;;;;;5.03;3.20;;;6.60;71.70;;;;;;5046182;28;20299;-70
2022/03/11 03:28:51;;;;;;;3.78;3.17;;;6.60;71.70;;;;;;5046329;28;20231;-70
2022/03/11 03:31:19;;;;;;;6.88;3.17;;;6.60;71.90;;;;;;5047007;28;20251;-70
2022/03/11 03:33:47;;;;;;;7.28;4.82;;;6.50;72.10;;;;;;5048583;28;20227;-70
2022/03/11 03:36:14;;;;;;;3.97;3.20;;;6.50;72.10;;;;;;5047255;28;20200;-70
2022/03/11 03:38:41;;;;;;;4.07;3.40;;;6.50;72.40;;;;;;5046146;28;20201;-70
2022/03/11 03:41:08;;;;;;;3.83;3.42;;;6.50;72.30;;;;;;5046344;28;20241;-70
2022/03/11 03:43:35;;;;;;;4.70;3.30;;;6.60;72.40;;;;;;5045441;28;20283;-71
2022/03/11 03:46:01;;;;;;;4.28;3.60;;;6.60;72.40;;;;;;5047498;28;20546;-68
2022/03/11 03:48:28;;;;;;;6.03;5.03;;;6.60;72.60;;;;;;5047202;28;20255;-69
2022/03/11 03:50:56;;;;;;;4.53;4.07;;;6.60;72.70;;;;;;5046643;28;20265;-70
2022/03/11 03:53:23;;;;;;;7.53;4.28;;;6.60;72.60;;;;;;5046528;28;20617;-69
2022/03/11 03:55:49;;;;;;;6.00;4.97;;;6.60;72.80;;;;;;5047656;28;20214;-70
2022/03/11 03:58:16;;;;;;;5.60;4.57;;;6.40;73.10;;;;;;5046977;28;20215;-69
2022/03/11 04:00:43;;;;;;;4.55;3.92;;;6.50;73.20;;;;;;5053336;28;20245;-69
2022/03/11 04:03:09;;;;;;;4.47;4.07;;;6.40;73.20;;;;;;5061989;28;20202;-69
2022/03/11 04:05:37;;;;;;;4.65;3.53;;;6.40;73.40;;;;;;5063310;28;20215;-71
2022/03/11 04:08:06;;;;;;;3.90;3.50;;;6.40;73.60;;;;;;5062357;28;20210;-69
2022/03/11 04:10:32;;;;;;;6.93;4.05;;;6.40;73.70;;;;;;5055357;28;20201;-70
2022/03/11 04:12:59;;;;;;;4.05;3.65;;;6.40;73.70;;;;;;5051189;28;20222;-70
2022/03/11 04:15:25;;;;;;;7.35;4.90;;;6.40;73.60;;;;;;5056758;28;20664;-71
2022/03/11 04:17:52;;;;;;;4.95;4.47;;;6.40;73.60;;;;;;5056573;28;20204;-70
2022/03/11 04:20:19;;;;;;;5.15;3.40;;;6.40;73.70;;;;;;5056638;28;20283;-69
2022/03/11 04:22:46;;;;;;;4.03;3.72;;;6.40;73.70;;;;;;5054313;28;20199;-73
2022/03/11 04:25:15;;;;;;;5.47;4.40;;;6.30;74.00;;;;;;5056423;28;20223;-72
2022/03/11 04:27:43;;;;;;;5.40;3.25;;;6.30;74.20;;;;;;5051291;28;20214;-71
2022/03/11 04:30:10;;;;;;;5.18;3.90;;;6.30;74.30;;;;;;5046845;28;20195;-72
2022/03/11 04:32:37;;;;;;;5.25;3.00;;;6.20;74.50;;;;;;5045709;28;20801;-72
2022/03/11 04:35:04;;;;;;;5.00;4.50;;;6.20;74.50;;;;;;5047492;28;20223;-71
2022/03/11 04:37:31;;;;;;;6.72;5.22;;;6.20;74.70;;;;;;5046621;28;20198;-71
2022/03/11 04:39:58;;;;;;;6.53;5.03;;;6.10;74.80;;;;;;5047063;28;20214;-72
2022/03/11 04:42:26;;;;;;;5.25;3.88;;;6.10;75.00;;;;;;5045751;28;20203;-71
2022/03/11 04:44:52;;;;;;;4.95;4.45;;;6.10;75.10;;;;;;5047093;28;20622;-71
2022/03/11 04:47:19;;;;;;;6.00;4.80;;;6.10;75.20;;;;;;5048024;28;20199;-73
2022/03/11 04:49:45;;;;;;;6.45;4.00;;;6.00;75.40;;;;;;5047585;28;20217;-71
2022/03/11 04:52:12;;;;;;;5.22;4.00;;;6.00;75.30;;;;;;5049291;28;20637;-71
2022/03/11 04:54:39;;;;;;;4.20;3.80;;;6.00;75.40;;;;;;5047504;28;20300;-71
2022/03/11 04:57:05;;;;;;;4.40;3.47;;;6.00;75.60;;;;;;5048469;28;20257;-72
2022/03/11 04:59:33;;;;;;;6.78;5.28;;;6.00;75.50;;;;;;5048650;28;20210;-72
2022/03/11 05:02:00;;;;;;;5.88;3.42;;;6.00;75.70;;;;;;5047812;28;20248;-71
2022/03/11 05:04:26;;;;;;;5.68;4.57;;;5.90;75.70;;;;;;5047078;28;20226;-72
2022/03/11 05:06:53;;;;;;;6.05;4.57;;;5.90;76.00;;;;;;5048254;28;20242;-72
2022/03/11 05:09:20;;;;;;;6.35;4.47;;;5.90;75.90;;;;;;5048129;28;20205;-71
2022/03/11 05:11:46;;;;;;;5.13;3.35;;;5.90;76.00;;;;;;5047593;28;20228;-72
2022/03/11 05:14:13;;;;;;;6.35;5.65;;;5.90;76.10;;;;;;5047072;28;20797;-73
2022/03/11 05:16:41;;;;;;;8.68;4.88;;;5.80;76.20;;;;;;5047915;28;20206;-71
2022/03/11 05:19:08;;;;;;;5.38;3.63;;;5.80;76.30;;;;;;5047159;28;20272;-71
2022/03/11 05:21:34;;;;;;;5.30;4.78;;;5.80;76.60;;;;;;5047625;28;20594;-71
2022/03/11 05:24:01;;;;;;;4.82;3.85;;;5.70;76.70;;;;;;5047415;28;20271;-70
2022/03/11 05:26:29;;;;;;;6.57;4.57;;;5.70;76.80;;;;;;5048664;28;20346;-71
2022/03/11 05:28:58;;;;;;;6.88;5.72;;;5.70;77.10;;;;;;5047238;28;20237;-72
2022/03/11 05:31:26;;;;;;;5.70;5.15;;;5.60;77.10;;;;;;5039498;28;20194;-71
2022/03/11 05:33:55;;;;;;;5.80;5.10;;;5.60;77.10;;;;;;5045888;28;20696;-71
2022/03/11 05:36:22;;;;;;;7.50;5.85;;;5.60;77.20;;;;;;5047280;28;20203;-71
2022/03/11 05:38:49;;;;;;;7.22;5.85;;;5.60;77.40;;;;;;5047566;28;20227;-72
2022/03/11 05:41:15;;;;;;;5.00;4.55;;;5.60;77.70;;;;;;5047910;28;20225;-71
2022/03/11 05:43:42;;;;;;;8.93;5.88;;;5.50;77.90;;;;;;5046094;28;20324;-72
2022/03/11 05:46:09;;;;;;;5.90;5.00;;;5.40;78.20;;;;;;5046803;28;20249;-70
2022/03/11 05:48:36;;;;;;;8.52;5.43;;;5.40;79.00;;;;;;5044068;28;20787;-69
2022/03/11 05:51:04;;;;;;;7.10;6.43;;;5.40;78.40;;;;;;5047038;28;20661;-71
2022/03/11 05:53:31;;;;;;;5.85;4.95;;;5.50;78.40;;;;;;5045907;28;20271;-71
2022/03/11 05:55:58;;;;;;;6.32;5.30;;;5.40;78.60;;;;;;5046934;28;20233;-71
2022/03/11 05:58:24;;;;;;;6.72;5.55;;;5.40;79.00;;;;;;5050409;28;20568;-70
2022/03/11 06:00:51;;;;;;;6.85;5.93;;;5.30;78.90;;;;;;5044333;28;20327;-71
2022/03/11 06:03:18;;;;;;;6.10;5.50;;;5.40;79.00;;;;;;5041394;28;20296;-71
2022/03/11 06:05:45;;;;;;;9.52;5.82;;;5.40;79.20;;;;;;5044899;28;20897;-71
2022/03/11 06:08:13;;;;;;;6.03;4.88;;;5.30;79.30;;;;;;5057016;28;20198;-71
2022/03/11 06:10:40;;;;;;;7.13;6.43;;;5.30;79.40;;;;;;5052702;28;20198;-70
2022/03/11 06:13:06;;;;;;;8.85;7.05;;;5.30;79.50;;;;;;5050951;28;20274;-71
2022/03/11 06:15:33;;;;;;;9.88;6.00;;;5.30;79.90;;;;;;5042979;28;20310;-71
2022/03/11 06:17:59;;;;;;;8.23;5.80;;;5.20;80.00;;;;;;5046859;28;20264;-71
2022/03/11 06:20:29;;;;;;;7.45;5.10;;;5.20;79.90;;;;;;5052338;28;20368;-76
2022/03/11 06:22:56;;;;;;;6.40;5.80;;;5.30;80.10;;;;;;5055790;28;20206;-72
2022/03/11 06:25:24;;;;;;;5.65;5.15;;;5.30;80.00;;;;;;5055927;28;20304;-73
2022/03/11 06:27:51;;;;;;;7.88;6.65;;;5.30;80.00;;;;;;5050855;28;20355;-70
2022/03/11 06:30:17;;;;;;;8.75;6.05;;;5.30;80.30;;;;;;5047333;28;20218;-74
2022/03/11 06:32:45;;;;;;;7.95;5.57;;;5.30;80.40;;;;;;5046168;28;20248;-75
2022/03/11 06:35:13;;;;;;;8.57;5.65;;;5.20;80.30;;;;;;5064399;28;20586;-74
2022/03/11 06:37:40;;;;;;;8.85;6.22;;;5.20;80.30;;;;;;5050088;28;20849;-75
2022/03/11 06:40:09;;;;;;;7.82;7.10;;;5.30;80.30;;;;;;5048237;28;20298;-75
2022/03/11 06:42:38;;;;;;;6.53;4.95;;;5.30;80.50;;;;;;5047811;28;20209;-74
2022/03/11 06:45:06;;;;;;;5.72;5.22;;;5.30;80.30;;;;;;5049478;28;20217;-73
2022/03/11 06:47:32;;;;;;;6.55;5.25;;;5.30;80.30;;;;;;5048287;28;20581;-73
2022/03/11 06:49:59;;;;;;;10.55;6.45;;;5.30;80.00;;;;;;5048264;28;20205;-74
2022/03/11 06:52:26;;;;;;;7.00;6.30;;;5.30;79.90;;;;;;5047899;28;20209;-74
2022/03/11 06:54:52;;;;;;;9.40;6.80;;;5.30;80.70;;;;;;5047309;28;20229;-77
2022/03/11 06:57:20;;;;;;;7.93;5.90;;;5.30;79.80;;;;;;5046539;28;20272;-74
2022/03/11 06:59:49;;;;;;;6.72;5.65;;;5.30;79.60;;;;;;5045402;28;20216;-74
2022/03/11 07:02:16;;;;;;;9.95;6.90;;;5.40;80.10;;;;;;5046309;28;20229;-73
2022/03/11 07:04:43;;;;;;;5.97;4.93;;;5.40;79.70;;;;;;5046074;28;20230;-74
2022/03/11 07:07:10;;;;;;;9.13;7.95;;;5.50;79.60;;;;;;5045264;28;20256;-74
2022/03/11 07:09:37;;;;;;;9.52;6.45;;;5.50;79.20;;;;;;5045086;28;20291;-73
2022/03/11 07:12:04;;;;;;;7.75;5.68;;;5.50;78.70;;;;;;5045609;28;20651;-74
2022/03/11 07:14:33;;;;;;;7.13;6.05;;;5.50;79.10;;;;;;5045918;28;20222;-74
2022/03/11 07:17:01;;;;;;;7.22;6.63;;;5.60;79.20;;;;;;5045083;28;20206;-74
2022/03/11 07:19:28;;;;;;;7.47;5.60;;;5.70;78.50;;;;;;5046989;28;20276;-73
2022/03/11 07:21:55;;;;;;;7.10;6.03;;;5.70;78.30;;;;;;5047023;28;20311;-73
2022/03/11 07:24:21;;;;;;;9.52;7.20;;;5.70;78.40;;;;;;5044650;28;20226;-74
2022/03/11 07:26:48;;;;;;;8.35;6.75;;;5.80;78.00;;;;;;5044788;28;20283;-75
2022/03/11 07:29:14;;;;;;;5.80;5.30;;;5.80;77.60;;;;;;5045752;28;20579;-73
2022/03/11 07:31:41;;;;;;;9.50;6.05;;;5.90;77.40;;;;;;5046326;28;20228;-75
2022/03/11 07:34:09;;;;;;;8.07;6.28;;;6.00;77.00;;;;;;5047945;28;20290;-75
2022/03/11 07:36:36;;;;;;;14.60;7.45;;;6.00;76.90;;;;;;5046830;28;20210;-74
2022/03/11 07:39:03;;;;;;;9.68;5.40;;;6.00;77.00;;;;;;5045992;28;20337;-74
2022/03/11 07:41:30;;;;;;;48.13;45.00;;;6.10;76.60;;;;;;5045143;28;20226;-75
2022/03/11 07:43:57;;;;;;;9.00;6.65;;;6.10;76.50;;;;;;5048177;28;20226;-74
2022/03/11 07:46:24;;;;;;;12.18;7.25;;;6.10;76.50;;;;;;5048001;28;20267;-75
2022/03/11 07:48:51;;;;;;;6.78;6.00;;;6.20;76.40;;;;;;5046883;28;20277;-75
2022/03/11 07:51:19;;;;;;;9.00;6.78;;;6.30;76.40;;;;;;5048412;28;20333;-75
2022/03/11 07:53:46;;;;;;;6.28;5.55;;;6.50;76.10;;;;;;5046670;28;20324;-75
2022/03/11 07:56:13;;;;;;;17.90;5.05;;;6.50;75.60;;;;;;5048546;28;20286;-74
2022/03/11 07:58:41;;;;;;;7.75;5.43;;;6.60;75.40;;;;;;5044647;28;20215;-74
2022/03/11 08:01:09;;;;;;;9.00;6.82;;;6.70;75.10;;;;;;5045945;28;20250;-74
2022/03/11 08:03:37;;;;;;;7.18;5.72;;;6.80;75.20;;;;;;5043871;28;20221;-74
2022/03/11 08:06:04;;;;;;;6.93;5.38;;;6.80;75.20;;;;;;5045798;28;20260;-74
2022/03/11 08:08:32;;;;;;;8.70;6.53;;;6.90;75.00;;;;;;5042765;28;20202;-77
2022/03/11 08:10:59;;;;;;;9.55;6.50;;;7.00;74.70;;;;;;5042017;28;20217;-76
2022/03/11 08:13:26;;;;;;;7.70;5.43;;;7.10;74.70;;;;;;5048083;28;20273;-75
2022/03/11 08:15:54;;;;;;;6.05;5.45;;;7.30;74.00;;;;;;5054454;28;20270;-74
2022/03/11 08:18:21;;;;;;;8.73;6.15;;;7.30;74.10;;;;;;5051759;28;20274;-75
2022/03/11 08:20:48;;;;;;;8.20;5.97;;;7.30;73.50;;;;;;5061350;28;20283;-76
2022/03/11 08:23:15;;;;;;;10.45;6.78;;;7.30;73.20;;;;;;5050847;28;20272;-75
2022/03/11 08:25:43;;;;;;;8.75;7.05;;;7.40;73.60;;;;;;5048721;28;20219;-74
2022/03/11 08:28:12;;;;;;;8.57;7.28;;;7.40;73.00;;;;;;5049801;28;20233;-74
2022/03/11 08:30:39;;;;;;;10.88;5.65;;;7.50;73.10;;;;;;5049678;28;20212;-75
2022/03/11 08:33:06;;;;;;;9.50;5.32;;;7.50;73.50;;;;;;5050525;28;20263;-75
2022/03/11 08:35:33;;;;;;;8.35;6.07;;;7.60;73.00;;;;;;5055664;28;20296;-76
2022/03/11 08:37:59;;;;;;;6.85;5.70;;;7.50;72.70;;;;;;5051941;28;20202;-75
2022/03/11 08:40:27;;;;;;;7.55;6.75;;;7.70;73.00;;;;;;5054720;28;20297;-74
2022/03/11 08:42:55;;;;;;;7.55;5.97;;;7.80;72.90;;;;;;5052019;28;20217;-75
2022/03/11 08:45:22;;;;;;;9.23;6.43;;;8.00;72.40;;;;;;5051377;28;20297;-74
2022/03/11 08:47:49;;;;;;;10.07;6.28;;;8.10;71.80;;;;;;5048899;28;20205;-73
2022/03/11 08:50:17;;;;;;;9.18;5.97;;;8.10;71.60;;;;;;5050192;28;20609;-74
2022/03/11 08:52:44;;;;;;;8.40;6.55;;;8.20;71.10;;;;;;5047961;28;20290;-74
2022/03/11 08:55:11;;;;;;;8.98;7.03;;;8.30;71.10;;;;;;5047686;28;20545;-73
2022/03/11 08:57:38;;;;;;;8.48;7.53;;;8.40;71.10;;;;;;5048394;28;20202;-73
2022/03/11 09:00:12;;;;;;;9.63;6.35;;;8.60;70.80;;;;;;5047426;28;20202;-73
2022/03/11 09:02:39;;;;;;;7.45;6.75;;;8.80;70.30;;;;;;5047633;28;20346;-73
2022/03/11 09:05:07;;;;;;;7.60;6.40;;;8.80;70.00;;;;;;5047376;28;20265;-73
2022/03/11 09:07:33;;;;;;;6.45;4.15;;;8.90;70.30;;;;;;5047269;28;20205;-73
2022/03/11 09:10:01;;;;;;;9.33;7.43;;;9.10;70.10;;;;;;5048491;28;20627;-74
2022/03/11 09:12:27;;;;;;;7.20;5.80;;;9.30;69.60;;;;;;5049514;28;20493;-74
2022/03/11 09:14:54;;;;;;;8.57;6.33;;;9.40;69.30;;;;;;5047085;28;20506;-73
2022/03/11 09:17:22;;;;;;;7.45;6.35;;;9.50;68.60;;;;;;5046220;28;20828;-68
2022/03/11 09:19:49;;;;;;;9.75;7.18;;;9.50;69.80;;;;;;5044576;28;20232;-62
2022/03/11 09:22:17;;;;;;;8.67;6.97;;;9.80;69.60;;;;;;5043347;28;20675;-65
2022/03/11 09:24:44;;;;;;;8.23;5.07;;;10.00;67.30;;;;;;5041927;28;20476;-71
2022/03/11 09:27:12;;;;;;;78.28;72.93;;;9.90;67.50;;;;;;5046511;28;20483;-64
2022/03/11 09:29:39;;;;;;;10.30;7.00;;;9.90;67.70;;;;;;5044485;28;20813;-68
2022/03/11 09:32:07;;;;;;;7.40;6.23;;;10.00;66.50;;;;;;5045564;28;20812;-64
2022/03/11 09:34:35;;;;;;;7.70;6.40;;;10.00;66.30;;;;;;5045046;28;20557;-65
2022/03/11 09:37:02;;;;;;;7.50;5.30;;;9.90;66.90;;;;;;5046101;28;20448;-64
2022/03/11 09:39:29;;;;;;;7.35;6.60;;;9.90;67.60;;;;;;5044775;28;20451;-65
2022/03/11 09:41:55;;;;;;;9.35;6.50;;;10.10;66.30;;;;;;5044625;28;20229;-64
2022/03/11 09:44:24;;;;;;;7.43;6.30;;;10.20;66.00;;;;;;5044474;28;20260;-65
2022/03/11 09:46:51;;;;;;;12.03;7.33;;;10.10;65.40;;;;;;5045789;28;20544;-65
2022/03/11 09:49:18;;;;;;;18.83;7.87;;;10.00;65.50;;;;;;5046347;28;20614;-65
2022/03/11 09:51:47;;;;;;;10.70;7.60;;;10.00;65.90;;;;;;5044960;28;20439;-64
2022/03/11 09:54:15;;;;;;;8.73;6.37;;;10.20;65.70;;;;;;5044124;28;20553;-65
2022/03/11 09:56:43;;;;;;;9.83;7.77;;;10.40;65.70;;;;;;5045356;28;20452;-64
2022/03/11 09:59:11;;;;;;;5.83;5.03;;;10.30;64.80;;;;;;5043730;28;20597;-64
2022/03/11 10:01:39;;;;;;;7.43;4.90;;;10.40;65.00;;;;;;5043672;28;20541;-65
2022/03/11 10:04:07;;;;;;;6.80;6.20;;;10.40;65.60;;;;;;5043390;28;20529;-64
2022/03/11 10:06:39;;;;;;;7.90;7.10;;;10.60;65.10;;;;;;5045043;28;20444;-65
2022/03/11 10:09:07;;;;;;;11.67;6.37;;;10.70;64.60;;;;;;5043368;28;20448;-66
2022/03/11 10:11:37;;;;;;;7.70;5.50;;;10.80;64.50;;;;;;5043204;28;20551;-67
2022/03/11 10:14:08;;;;;;;7.60;6.17;;;10.80;64.10;;;;;;5043266;28;20471;-65
2022/03/11 10:16:36;;;;;;;8.40;6.17;;;10.80;64.50;;;;;;5045056;28;20536;-64
2022/03/11 10:19:06;;;;;;;5.20;4.53;;;11.00;63.70;;;;;;5044593;28;20788;-64
2022/03/11 10:21:34;;;;;;;8.33;5.53;;;11.10;63.50;;;;;;5045086;28;20488;-64
2022/03/11 10:24:03;;;;;;;8.60;6.03;;;11.30;64.10;;;;;;5044329;28;20476;-65
2022/03/11 10:26:32;;;;;;;7.67;6.80;;;11.30;63.00;;;;;;5044172;28;20993;-65
2022/03/11 10:28:59;;;;;;;7.50;5.67;;;11.30;62.90;;;;;;5042798;28;20506;-64
2022/03/11 10:31:30;;;;;;;6.67;6.00;;;11.30;63.60;;;;;;5044631;28;20812;-64
2022/03/11 10:34:12;;;;;;;8.10;6.53;;;11.30;63.20;;;;;;5043726;28;20492;-64
2022/03/11 10:36:46;;;;;;;9.10;6.60;;;11.40;62.60;;;;;;5044408;28;20518;-65
2022/03/11 10:39:14;;;;;;;9.70;6.10;;;11.50;62.80;;;;;;5044694;28;20448;-64
2022/03/11 10:41:42;;;;;;;10.07;7.00;;;11.40;62.50;;;;;;5043471;28;20502;-64
2022/03/11 10:44:09;;;;;;;9.27;6.80;;;11.40;62.40;;;;;;5043247;28;20610;-65
2022/03/11 10:46:36;;;;;;;7.37;6.00;;;11.50;62.20;;;;;;5043600;28;20471;-66
2022/03/11 10:49:03;;;;;;;6.73;5.80;;;11.80;62.30;;;;;;5043119;28;20444;-70
2022/03/11 10:51:32;;;;;;;8.02;7.20;;;11.70;62.30;;;;;;5040338;28;20569;-72
2022/03/11 10:54:00;;;;;;;8.57;7.50;;;11.90;63.50;;;;;;5041044;28;20606;-71
2022/03/11 10:56:29;;;;;;;11.00;7.38;;;12.00;63.70;;;;;;5041170;28;20794;-65
2022/03/11 10:58:57;;;;;;;9.32;7.70;;;12.20;63.20;;;;;;5040179;28;20451;-64
2022/03/11 11:01:35;;;;;;;8.17;7.07;;;12.40;62.30;;;;;;5040959;28;20282;-69
2022/03/11 11:04:02;;;;;;;11.90;7.10;;;12.50;61.40;;;;;;5040768;28;21028;-70
2022/03/11 11:06:29;;;;;;;8.87;6.57;;;12.60;60.90;;;;;;5043005;28;21097;-66
2022/03/11 11:08:56;;;;;;;8.52;7.10;;;12.70;60.60;;;;;;5043049;28;20452;-66
2022/03/11 11:11:23;;;;;;;7.80;6.20;;;12.70;60.40;;;;;;5043144;28;20287;-65
2022/03/11 11:13:50;;;;;;;9.53;6.27;;;12.90;60.50;;;;;;5039251;28;20476;-64
2022/03/11 11:16:24;;;;;;;6.60;5.67;;;13.00;61.20;;;;;;5041121;28;20455;-64
2022/03/11 11:18:52;;;;;;;6.10;5.50;;;13.10;61.10;;;;;;5041812;28;20999;-64
2022/03/11 11:21:24;;;;;;;7.80;5.60;;;13.10;60.20;;;;;;5042205;28;20509;-65
2022/03/11 11:23:52;;;;;;;8.57;6.03;;;13.20;60.10;;;;;;5042095;28;20882;-64
2022/03/11 11:26:18;;;;;;;6.83;5.90;;;13.20;60.30;;;;;;5042763;28;20459;-67
2022/03/11 11:28:45;;;;;;;11.37;7.33;;;13.40;60.30;;;;;;5041018;28;20474;-66
2022/03/11 11:31:12;;;;;;;8.27;7.10;;;13.60;59.40;;;;;;5041888;28;20504;-71
2022/03/11 11:33:40;;;;;;;10.73;7.25;;;13.70;59.40;;;;;;5040386;28;20486;-71
2022/03/11 11:36:08;;;;;;;9.40;6.43;;;13.90;59.60;;;;;;5041964;28;20223;-72
2022/03/11 11:38:37;;;;;;;9.47;6.87;;;14.20;59.30;;;;;;5040440;28;20447;-67
2022/03/11 11:41:20;;;;;;;8.57;7.63;;;14.70;59.40;;;;;;5042167;28;20462;-70
2022/03/11 11:43:54;;;;;;;7.07;6.20;;;15.10;58.70;;;;;;5041550;28;20544;-73
2022/03/11 11:46:22;;;;;;;12.67;7.00;;;15.20;59.20;;;;;;5041416;28;21426;-69
2022/03/11 11:49:07;;;;;;;6.17;5.53;;;15.40;57.80;;;;;;5042503;28;20524;-72
2022/03/11 11:51:59;;;;;;;8.93;6.00;;;15.50;57.90;;;;;;5041470;28;20482;-69
2022/03/11 11:54:38;;;;;;;6.13;5.00;;;15.80;58.10;;;;;;5044602;28;20475;-64
2022/03/11 11:57:05;;;;;;;8.00;6.67;;;16.40;57.50;;;;;;5045604;28;20550;-69
2022/03/11 11:59:36;;;;;;;9.47;7.43;;;17.00;56.50;;;;;;5046659;28;20490;-69
2022/03/11 12:02:04;;;;;;;14.77;7.30;;;17.40;56.20;;;;;;5049945;28;20486;-71
2022/03/11 12:04:34;;;;;;;7.83;6.03;;;17.40;55.80;;;;;;5048870;28;20464;-70
2022/03/11 12:07:02;;;;;;;6.77;6.07;;;17.60;55.30;;;;;;5048348;28;20550;-70
2022/03/11 12:09:47;;;;;;;6.47;5.77;;;17.20;55.10;;;;;;5048000;28;20923;-69
2022/03/11 12:12:55;;;;;;;8.17;6.60;;;17.80;55.30;;;;;;5045633;28;20509;-67
2022/03/11 12:15:23;;;;;;;7.60;6.13;;;18.30;53.90;;;;;;5044237;28;20471;-68
2022/03/11 12:17:55;;;;;;;7.80;6.47;;;18.10;54.40;;;;;;5045478;28;20597;-69
2022/03/11 12:20:28;;;;;;;10.60;6.73;;;19.00;53.60;;;;;;5044125;28;20480;-70
2022/03/11 12:22:57;;;;;;;6.87;5.90;;;19.80;52.70;;;;;;5041854;28;20860;-70
2022/03/11 12:25:25;;;;;;;9.30;6.23;;;20.20;53.20;;;;;;5043842;28;20910;-66
2022/03/11 12:28:07;;;;;;;6.63;5.90;;;20.00;52.30;;;;;;5044371;28;20447;-67
2022/03/11 12:30:35;;;;;;;6.57;5.97;;;20.50;51.90;;;;;;5043767;28;20456;-71
2022/03/11 12:33:04;;;;;;;7.57;6.43;;;20.20;51.60;;;;;;5047173;28;20499;-74
2022/03/11 12:35:32;;;;;;;6.63;6.00;;;20.00;51.50;;;;;;5049882;28;20468;-72
2022/03/11 12:38:00;;;;;;;6.90;5.50;;;20.20;51.40;;;;;;5047333;28;20501;-70
2022/03/11 12:40:29;;;;;;;8.50;6.67;;;19.60;52.10;;;;;;5045046;28;20456;-67
2022/03/11 12:43:04;;;;;;;7.07;6.37;;;20.00;51.90;;;;;;5044386;28;20487;-67
2022/03/11 12:45:36;;;;;;;6.97;5.90;;;20.50;51.30;;;;;;5045364;28;20560;-67
2022/03/11 12:48:04;;;;;;;7.80;6.50;;;20.80;50.90;;;;;;5044389;28;20562;-70
2022/03/11 12:50:32;;;;;;;10.47;6.80;;;20.40;51.20;;;;;;5044930;28;20605;-68
2022/03/11 12:53:00;;;;;;;7.97;6.70;;;19.50;50.90;;;;;;5047377;28;20501;-70
2022/03/11 12:55:30;;;;;;;8.67;6.60;;;19.90;50.90;;;;;;5044408;28;20491;-69